Time;durP1;ratioP1;P1;durP2;ratioP2;P2;SDS_P1;SDS_P2;PMS_P1;PMS_P2;Temp;Humidity;BMP_temperature;BMP_pressure;BME280_temperature;BME280_humidity;BME280_pressure;Samples;Min_cycle;Max_cycle;Signal;HPM_P1;HPM_P2
2022/01/16 00:01:03;;;;;;;131.50;51.20;;;;;;;-0.52;94.56;102174.97;10498746;28;20036;-78
2022/01/16 00:06:06;;;;;;;136.83;46.73;;;;;;;-0.49;94.92;102213.91;10496857;28;20032;-78
2022/01/16 00:11:12;;;;;;;77.45;43.50;;;;;;;-0.49;95.24;102231.91;10499056;28;20111;-78
2022/01/16 00:16:15;;;;;;;112.63;51.08;;;;;;;-0.51;95.06;102224.72;10480591;28;20097;-78
2022/01/16 00:21:23;;;;;;;103.85;46.95;;;;;;;-0.53;94.53;102233.94;10497090;28;20043;-78
2022/01/16 00:26:25;;;;;;;93.03;46.58;;;;;;;-0.56;94.87;102229.38;10482154;28;20040;-78
2022/01/16 00:31:31;;;;;;;91.47;41.67;;;;;;;-0.61;95.28;102251.97;10496970;28;20124;-78
2022/01/16 00:36:35;;;;;;;106.72;44.80;;;;;;;-0.66;94.74;102263.38;10498167;28;20103;-78
2022/01/16 00:41:55;;;;;;;91.82;42.85;;;;;;;-0.67;95.14;102261.56;10481081;28;20078;-78
2022/01/16 00:47:08;;;;;;;87.90;42.10;;;;;;;-0.66;94.95;102242.81;10496087;28;20144;-78
2022/01/16 00:52:15;;;;;;;102.13;46.22;;;;;;;-0.70;94.77;102261.19;10497408;28;20082;-77
2022/01/16 00:57:20;;;;;;;82.88;40.67;;;;;;;-0.63;95.16;102239.69;10478990;28;20098;-78
2022/01/16 01:02:29;;;;;;;81.85;43.38;;;;;;;-0.69;94.65;102209.03;10495518;28;20020;-78
2022/01/16 01:07:37;;;;;;;82.78;38.08;;;;;;;-0.73;95.21;102222.28;10495304;28;20029;-78
2022/01/16 01:13:07;;;;;;;125.60;43.67;;;;;;;-0.71;94.36;102223.38;10454579;28;20029;-78
2022/01/16 01:18:06;;;;;;;62.47;35.45;;;;;;;-0.77;94.83;102227.81;10481210;28;20162;-78
2022/01/16 01:23:11;;;;;;;103.90;41.22;;;;;;;-0.76;94.49;102203.94;10497630;28;20096;-77
2022/01/16 01:28:19;;;;;;;47.07;25.90;;;;;;;-0.77;95.07;102214.97;10461657;28;20055;-78
2022/01/16 01:33:25;;;;;;;90.57;39.17;;;;;;;-0.79;94.84;102201.94;10494122;28;20297;-77
2022/01/16 01:38:32;;;;;;;63.63;34.58;;;;;;;-0.77;94.34;102125.91;10494884;28;20044;-78
2022/01/16 01:54:25;;;;;;;75.75;37.08;;;;;;;-0.92;94.45;102173.91;10481748;28;20047;-77
2022/01/16 01:59:33;;;;;;;65.65;39.33;;;;;;;-0.78;94.58;102189.97;10493701;28;20033;-77
2022/01/16 02:04:34;;;;;;;72.93;40.70;;;;;;;-0.70;94.25;102199.50;10477884;28;20032;-78
2022/01/16 02:09:45;;;;;;;67.63;38.75;;;;;;;-0.69;94.34;102203.00;10493199;28;20040;-78
2022/01/16 02:15:00;;;;;;;73.80;40.70;;;;;;;-0.69;94.31;102201.31;10493517;28;20033;-78
2022/01/16 02:31:24;;;;;;;114.38;55.42;;;;;;;-0.60;94.55;102230.66;10487743;28;20115;-78
2022/01/16 02:36:32;;;;;;;120.05;55.58;;;;;;;-0.64;95.06;102249.06;10501639;28;20503;-77
2022/01/16 02:41:36;;;;;;;132.60;61.58;;;;;;;-0.69;94.56;102226.13;10501399;28;20131;-77
2022/01/16 02:46:46;;;;;;;109.78;55.40;;;;;;;-0.72;94.50;102200.06;10459680;28;20037;-78
2022/01/16 02:51:56;;;;;;;113.82;61.78;;;;;;;-0.75;94.55;102204.13;10461942;28;20451;-78
2022/01/16 02:57:11;;;;;;;117.70;56.72;;;;;;;-0.71;94.81;102200.22;10501028;28;20045;-77
2022/01/16 03:02:15;;;;;;;108.03;59.42;;;;;;;-0.70;95.31;102198.59;10468060;28;20047;-78
2022/01/16 03:07:34;;;;;;;122.10;62.53;;;;;;;-0.70;95.08;102176.34;10502280;28;20036;-78
2022/01/16 03:12:39;;;;;;;124.75;67.47;;;;;;;-0.69;94.89;102172.13;10498841;28;20033;-78
2022/01/16 03:23:04;;;;;;;104.15;61.42;;;;;;;-0.68;94.37;102172.28;10500573;28;20037;-77
2022/01/16 03:28:06;;;;;;;;;;;;;;;-0.71;94.02;102165.91;10500247;28;20025;-78
2022/01/16 03:33:10;;;;;;;104.23;54.97;;;;;;;-0.73;94.26;102155.44;10500268;28;19923;-78
2022/01/16 03:38:19;;;;;;;107.10;56.42;;;;;;;-0.72;94.27;102146.97;10499793;28;20557;-77
2022/01/16 03:43:23;;;;;;;100.10;54.25;;;;;;;-0.71;94.63;102151.38;10450544;28;20036;-78
2022/01/16 03:48:25;;;;;;;117.53;58.22;;;;;;;-0.64;94.66;102150.44;10499908;28;20058;-78
2022/01/16 03:53:38;;;;;;;120.60;60.67;;;;;;;-0.66;94.34;102155.38;10499247;28;20036;-78
2022/01/16 03:58:45;;;;;;;116.20;65.85;;;;;;;-0.61;94.25;102154.25;10483979;28;20107;-78
2022/01/16 04:03:46;;;;;;;;;;;;;;;-0.52;94.56;102156.03;10483702;28;20093;-78
2022/01/16 04:08:54;;;;;;;97.45;61.00;;;;;;;-0.53;94.10;102143.91;10515633;28;19941;-78
2022/01/16 04:14:14;;;;;;;116.40;62.97;;;;;;;-0.53;94.67;102155.13;10498605;28;20389;-77
2022/01/16 04:19:21;;;;;;;118.28;64.95;;;;;;;-0.53;93.96;102152.56;10498481;28;20047;-78
2022/01/16 04:24:28;;;;;;;113.35;66.00;;;;;;;-0.50;94.35;102147.75;10498210;28;20025;-77
2022/01/16 04:29:36;;;;;;;101.68;60.08;;;;;;;-0.48;94.68;102156.56;10496659;28;20062;-78
2022/01/16 04:34:40;;;;;;;112.25;67.32;;;;;;;-0.40;94.65;102152.25;10496218;28;20035;-78
2022/01/16 04:39:50;;;;;;;109.72;61.67;;;;;;;-0.31;94.76;102158.44;10497238;28;20044;-78
2022/01/16 04:45:02;;;;;;;104.30;65.78;;;;;;;-0.34;94.64;102154.63;10497570;28;20039;-77
2022/01/16 04:50:06;;;;;;;111.85;66.15;;;;;;;-0.28;94.81;102159.53;10496208;28;20510;-78
2022/01/16 04:55:09;;;;;;;114.82;71.15;;;;;;;-0.19;94.51;102161.50;10479287;28;20024;-78
2022/01/16 05:00:15;;;;;;;111.38;68.22;;;;;;;-0.14;94.28;102158.50;10496286;28;20028;-78
2022/01/16 05:05:24;;;;;;;114.60;67.65;;;;;;;-0.13;94.71;102153.53;10480089;28;20090;-78
2022/01/16 05:10:28;;;;;;;128.35;70.57;;;;;;;-0.09;94.55;102152.22;10496546;28;20028;-77
2022/01/16 05:20:53;;;;;;;137.15;77.10;;;;;;;0.05;94.11;102154.66;10490163;28;20395;-77
2022/01/16 05:25:59;;;;;;;;;;;;;;;0.08;94.43;102141.19;10496013;28;20032;-78
2022/01/16 05:31:08;;;;;;;119.22;76.40;;;;;;;0.11;94.09;102151.84;10495173;28;20451;-78
2022/01/16 05:36:09;;;;;;;131.32;80.60;;;;;;;0.19;94.43;102148.44;10494240;28;20069;-78
2022/01/16 05:41:14;;;;;;;117.93;72.55;;;;;;;0.21;94.42;102148.63;10495372;28;20080;-78
2022/01/16 05:46:33;;;;;;;134.07;76.10;;;;;;;0.23;94.39;102165.16;10453721;28;20040;-77
2022/01/16 05:51:38;;;;;;;144.25;81.50;;;;;;;0.27;93.97;102167.31;10458920;28;20032;-78
2022/01/16 05:56:48;;;;;;;143.80;78.93;;;;;;;0.34;94.24;102156.03;10496035;28;20111;-78
2022/01/16 06:01:55;;;;;;;128.48;79.10;;;;;;;0.33;93.93;102155.13;10493574;28;20111;-78
2022/01/16 06:07:00;;;;;;;131.45;77.68;;;;;;;0.40;93.87;102157.63;10461998;28;20056;-78
2022/01/16 06:12:02;;;;;;;130.02;77.82;;;;;;;0.45;93.61;102149.47;10477016;28;20044;-78
2022/01/16 06:17:19;;;;;;;117.53;66.60;;;;;;;0.51;93.70;102160.47;10493750;28;20021;-77
2022/01/16 06:22:20;;;;;;;128.95;75.30;;;;;;;0.58;93.98;102153.53;10494412;28;20025;-78
2022/01/16 06:27:28;;;;;;;125.68;74.25;;;;;;;0.60;93.89;102161.47;10476605;28;20036;-77
2022/01/16 06:32:30;;;;;;;131.88;77.47;;;;;;;0.69;93.24;102165.03;10494114;28;20040;-78
2022/01/16 06:37:32;;;;;;;136.15;78.13;;;;;;;0.65;93.19;102165.44;10459617;28;20397;-78
2022/01/16 06:42:41;;;;;;;134.27;78.70;;;;;;;0.71;93.49;102186.72;10477574;28;20384;-78
2022/01/16 06:47:44;;;;;;;130.60;74.38;;;;;;;0.76;93.35;102176.91;10476608;28;20016;-78
2022/01/16 06:52:45;;;;;;;127.15;73.93;;;;;;;0.78;93.33;102177.97;10452003;28;20078;-78
2022/01/16 06:57:52;;;;;;;122.60;76.63;;;;;;;0.79;93.21;102194.38;10447856;28;20494;-78
2022/01/16 07:02:58;;;;;;;150.48;77.70;;;;;;;0.83;93.27;102202.59;10474380;28;20032;-78
2022/01/16 07:08:04;;;;;;;145.27;85.15;;;;;;;0.85;93.62;102200.19;10511713;28;20502;-78
2022/01/16 07:13:11;;;;;;;139.07;83.55;;;;;;;0.90;93.67;102205.81;10497078;28;20134;-79
2022/01/16 07:18:19;;;;;;;138.68;81.03;;;;;;;0.98;93.62;102223.03;10482748;28;20072;-78
2022/01/16 07:23:38;;;;;;;144.07;87.50;;;;;;;1.08;93.71;102228.44;10509446;28;20475;-78
2022/01/16 07:28:49;;;;;;;143.43;78.53;;;;;;;1.18;93.31;102232.94;10504370;28;20140;-78
2022/01/16 07:33:58;;;;;;;139.70;77.88;;;;;;;1.20;93.36;102233.09;10498169;28;20036;-77
2022/01/16 07:38:59;;;;;;;125.60;76.03;;;;;;;1.27;92.77;102259.72;10496218;28;20109;-77
2022/01/16 07:44:01;;;;;;;126.38;75.15;;;;;;;1.39;93.13;102242.03;10501159;28;20136;-76
2022/01/16 07:49:04;;;;;;;118.72;68.85;;;;;;;1.45;92.60;102245.28;10494194;28;20081;-76
2022/01/16 07:54:04;;;;;;;134.23;70.40;;;;;;;1.48;92.18;102259.25;10501472;28;20056;-75
2022/01/16 07:59:05;;;;;;;109.93;65.40;;;;;;;1.45;92.09;102268.50;10501377;28;20196;-75
2022/01/16 08:04:05;;;;;;;115.30;66.78;;;;;;;1.46;92.12;102272.00;10514877;28;20052;-75
2022/01/16 08:09:06;;;;;;;111.03;61.42;;;;;;;1.45;91.73;102271.09;10508063;28;20079;-78
2022/01/16 08:14:06;;;;;;;103.15;58.05;;;;;;;1.46;91.70;102269.44;10491433;28;20107;-78
2022/01/16 08:19:07;;;;;;;98.47;56.08;;;;;;;1.50;91.42;102265.50;10506730;28;20795;-76
2022/01/16 08:24:07;;;;;;;97.45;56.05;;;;;;;1.53;91.51;102259.00;10497873;28;20071;-78
2022/01/16 08:29:10;;;;;;;88.72;55.13;;;;;;;1.51;91.12;102257.00;10482620;28;20119;-78
2022/01/16 08:34:10;;;;;;;91.90;55.50;;;;;;;1.58;91.12;102267.22;10462777;28;20104;-79
2022/01/16 08:39:11;;;;;;;94.15;50.80;;;;;;;1.62;90.77;102274.53;10525299;28;20083;-79
2022/01/16 08:44:11;;;;;;;100.70;55.95;;;;;;;1.61;90.72;102271.06;10495537;28;20044;-79
2022/01/16 08:49:12;;;;;;;82.32;47.13;;;;;;;1.65;90.97;102282.63;10487035;28;20028;-78
2022/01/16 08:54:13;;;;;;;101.60;57.22;;;;;;;1.78;90.51;102278.75;10502574;28;20035;-78
2022/01/16 08:59:14;;;;;;;92.45;52.00;;;;;;;1.85;90.68;102286.41;10492626;28;20444;-78
2022/01/16 09:04:15;;;;;;;94.93;54.75;;;;;;;1.87;90.64;102287.47;10493671;28;20036;-77
2022/01/16 09:09:16;;;;;;;97.80;53.47;;;;;;;1.95;90.55;102286.59;10487626;28;20169;-78
2022/01/16 09:14:16;;;;;;;94.25;53.95;;;;;;;2.01;90.21;102286.34;10469690;28;20103;-79
2022/01/16 09:19:17;;;;;;;87.60;49.13;;;;;;;2.06;89.78;102311.00;10491376;28;20032;-78
2022/01/16 09:24:17;;;;;;;93.50;54.00;;;;;;;2.12;89.75;102321.97;10487485;28;20025;-77
2022/01/16 09:29:18;;;;;;;91.43;52.53;;;;;;;2.22;89.19;102321.25;10488079;28;20033;-77
2022/01/16 09:34:20;;;;;;;102.78;54.33;;;;;;;2.32;89.26;102330.91;10494003;28;20025;-79
2022/01/16 09:39:20;;;;;;;93.60;53.65;;;;;;;2.42;89.08;102343.09;10481492;28;20429;-79
2022/01/16 09:44:21;;;;;;;84.70;50.83;;;;;;;2.41;89.08;102337.03;10486758;28;20036;-78
2022/01/16 09:49:21;;;;;;;99.05;51.35;;;;;;;2.55;88.84;102335.84;10468970;28;20124;-79
2022/01/16 09:54:22;;;;;;;102.25;55.40;;;;;;;2.65;88.55;102335.16;10490209;28;20490;-79
2022/01/16 09:59:23;;;;;;;101.80;53.30;;;;;;;2.68;88.44;102344.88;10458973;28;20027;-80
2022/01/16 10:04:35;;;;;;;85.85;47.08;;;;;;;2.82;88.07;102352.38;10474582;28;20066;-79
2022/01/16 10:09:36;;;;;;;93.03;51.83;;;;;;;2.78;87.94;102363.16;10457953;28;20408;-80
2022/01/16 10:14:45;;;;;;;92.67;51.77;;;;;;;2.82;87.89;102365.31;10459050;28;20020;-79
2022/01/16 10:20:03;;;;;;;88.85;49.10;;;;;;;2.74;87.71;102359.38;10459881;28;20344;-80
2022/01/16 10:25:04;;;;;;;99.80;51.40;;;;;;;2.79;88.50;102359.84;10468153;28;20445;-78
2022/01/16 10:30:09;;;;;;;101.83;52.43;;;;;;;2.88;87.82;102371.13;10443255;28;20024;-77
2022/01/16 10:35:22;;;;;;;89.85;50.20;;;;;;;2.84;87.80;102368.06;10462392;28;20028;-80
2022/01/16 10:40:38;;;;;;;102.82;50.70;;;;;;;3.06;88.14;102368.59;10481761;28;20059;-79
2022/01/16 10:45:51;;;;;;;93.50;51.50;;;;;;;3.36;86.98;102386.34;10449654;28;20492;-80
2022/01/16 10:50:55;;;;;;;91.80;48.38;;;;;;;3.37;86.17;102390.75;10464214;28;20033;-78
2022/01/16 10:55:57;;;;;;;91.18;50.25;;;;;;;3.14;86.21;102393.56;10483786;28;20446;-78
2022/01/16 11:01:04;;;;;;;90.47;47.00;;;;;;;3.14;86.55;102390.09;10481429;28;20025;-78
2022/01/16 11:06:07;;;;;;;85.45;46.13;;;;;;;3.24;86.47;102398.03;10485729;28;20059;-78
2022/01/16 11:11:08;;;;;;;83.15;47.83;;;;;;;3.11;86.57;102397.53;10474594;28;20132;-78
2022/01/16 11:16:10;;;;;;;87.18;43.72;;;;;;;3.16;86.87;102397.22;10448051;28;20381;-78
2022/01/16 11:26:11;;;;;;;88.07;40.72;;;;;;;3.20;86.54;102398.47;10458455;28;20060;-77
2022/01/16 11:31:15;;;;;;;81.15;44.65;;;;;;;3.18;86.25;102387.06;10473585;28;20032;-77
2022/01/16 11:36:18;;;;;;;72.15;41.42;;;;;;;3.63;84.80;102396.72;10482877;28;20025;-78
2022/01/16 11:41:25;;;;;;;;;;;;;;;3.77;83.76;102396.41;10452266;28;20037;-78
2022/01/16 11:46:27;;;;;;;69.60;39.03;;;;;;;3.74;83.57;102396.09;10479200;28;20280;-77
2022/01/16 11:51:38;;;;;;;66.73;37.97;;;;;;;3.42;84.66;102390.31;10476870;28;20487;-78
2022/01/16 11:56:42;;;;;;;68.53;38.25;;;;;;;3.11;85.33;102387.19;10497566;28;20032;-77
2022/01/16 12:01:55;;;;;;;71.35;36.60;;;;;;;3.07;85.63;102393.69;10473001;28;20559;-78
2022/01/16 12:07:21;;;;;;;64.03;36.75;;;;;;;3.20;86.11;102390.72;10483143;28;20435;-77
2022/01/16 12:12:22;;;;;;;64.55;35.83;;;;;;;3.39;85.35;102398.66;10477255;28;20067;-78
2022/01/16 12:17:27;;;;;;;88.50;41.47;;;;;;;3.31;85.32;102394.38;10487880;28;20071;-79
2022/01/16 12:22:46;;;;;;;62.20;36.85;;;;;;;3.21;85.76;102380.50;10505567;28;20036;-76
2022/01/16 12:27:56;;;;;;;57.17;33.22;;;;;;;3.19;85.33;102387.19;10479212;28;20034;-77
2022/01/16 12:33:10;;;;;;;67.63;34.88;;;;;;;3.15;86.06;102392.81;10483468;28;20080;-78
2022/01/16 12:38:18;;;;;;;62.20;35.42;;;;;;;3.20;85.94;102396.78;10490030;28;20094;-78
2022/01/16 12:43:28;;;;;;;66.10;34.53;;;;;;;3.17;86.07;102404.22;10494853;28;20062;-77
2022/01/16 12:48:29;;;;;;;58.42;34.65;;;;;;;3.27;86.02;102398.34;10511398;28;20040;-78
2022/01/16 12:53:49;;;;;;;62.58;34.95;;;;;;;3.23;86.11;102397.09;10474530;28;20033;-78
2022/01/16 12:58:57;;;;;;;58.53;34.00;;;;;;;3.15;86.88;102379.88;10479352;28;20039;-78
2022/01/16 13:03:58;;;;;;;59.10;35.00;;;;;;;3.11;86.33;102393.25;10495624;28;20121;-80
2022/01/16 13:09:07;;;;;;;59.83;31.98;;;;;;;3.07;86.30;102388.53;10487932;28;20027;-79
2022/01/16 13:14:11;;;;;;;68.15;37.92;;;;;;;2.95;87.30;102375.28;10480739;28;20527;-76
2022/01/16 13:19:28;;;;;;;63.58;32.65;;;;;;;2.96;87.75;102382.28;10482117;28;20070;-78
2022/01/16 13:24:49;;;;;;;67.50;35.90;;;;;;;2.99;87.47;102381.66;10473912;28;20044;-78
2022/01/16 13:29:53;;;;;;;62.67;36.22;;;;;;;2.89;87.92;102370.38;10486094;28;20061;-78
2022/01/16 13:34:55;;;;;;;68.85;36.65;;;;;;;2.88;88.24;102386.63;10464669;28;20025;-78
2022/01/16 13:39:57;;;;;;;63.15;37.88;;;;;;;2.87;88.08;102382.22;10485662;28;20088;-78
2022/01/16 13:45:45;;;;;;;66.38;39.05;;;;;;;2.87;88.20;102389.09;10494500;28;20041;-76
2022/01/16 13:51:00;;;;;;;69.53;37.75;;;;;;;2.93;88.13;102389.72;10458494;28;20053;-77
2022/01/16 13:56:05;;;;;;;65.53;37.40;;;;;;;2.92;88.69;102403.41;10458575;28;20037;-79
2022/01/16 14:01:16;;;;;;;62.25;36.83;;;;;;;2.95;88.48;102398.56;10469076;28;20040;-78
2022/01/16 14:06:16;;;;;;;59.30;32.05;;;;;;;2.96;88.12;102397.78;10493440;28;20041;-78
2022/01/16 14:11:20;;;;;;;47.65;29.25;;;;;;;3.04;88.38;102398.56;10488128;28;20029;-78
2022/01/16 14:16:21;;;;;;;48.15;27.52;;;;;;;3.01;87.71;102396.59;10493949;28;20086;-79
2022/01/16 14:26:51;;;;;;;51.83;27.45;;;;;;;3.11;87.23;102407.88;10460086;28;20029;-78
2022/01/16 14:31:53;;;;;;;45.67;28.50;;;;;;;3.12;86.77;102408.03;10490905;28;20159;-79
2022/01/16 14:36:53;;;;;;;44.10;27.17;;;;;;;3.18;87.34;102407.75;10463617;28;20059;-77
2022/01/16 14:41:54;;;;;;;48.33;29.30;;;;;;;3.08;87.29;102408.47;10504336;28;20090;-78
2022/01/16 14:46:55;;;;;;;44.50;27.27;;;;;;;3.04;87.54;102433.13;10503671;28;20028;-80
2022/01/16 14:51:56;;;;;;;49.00;28.43;;;;;;;2.97;88.31;102420.31;10501364;28;20028;-78
2022/01/16 14:56:56;;;;;;;49.58;29.02;;;;;;;2.97;87.91;102440.06;10499803;28;20442;-78
2022/01/16 15:01:57;;;;;;;41.28;28.20;;;;;;;2.96;87.77;102444.34;10484518;28;20044;-78
2022/01/16 15:06:57;;;;;;;45.63;25.85;;;;;;;2.87;88.49;102456.31;10478355;28;20438;-78
2022/01/16 15:11:59;;;;;;;52.17;32.63;;;;;;;2.85;88.87;102430.28;10480428;28;20029;-78
2022/01/16 15:16:59;;;;;;;54.60;30.25;;;;;;;2.83;88.61;102420.56;10476192;28;20040;-78
2022/01/16 15:22:12;;;;;;;49.40;29.55;;;;;;;2.75;89.61;102467.22;10476543;28;20029;-77
2022/01/16 15:27:12;;;;;;;57.13;32.17;;;;;;;2.66;90.03;102478.25;10466530;28;20028;-78
2022/01/16 15:32:13;;;;;;;66.28;36.33;;;;;;;2.68;90.72;102480.25;10523535;28;20048;-75
2022/01/16 15:37:16;;;;;;;67.60;37.13;;;;;;;2.61;90.30;102486.44;10502102;28;20083;-80
2022/01/16 15:42:17;;;;;;;64.43;34.28;;;;;;;2.55;90.57;102487.47;10507874;28;20096;-80
2022/01/16 15:47:18;;;;;;;66.05;38.72;;;;;;;2.51;90.84;102493.97;10505320;28;20059;-78
2022/01/16 15:52:18;;;;;;;80.05;39.08;;;;;;;2.49;90.70;102506.75;10516638;28;20082;-78
2022/01/16 15:57:19;;;;;;;68.43;38.35;;;;;;;2.46;91.00;102511.59;10500465;28;20528;-78
2022/01/16 16:02:20;;;;;;;81.10;43.63;;;;;;;2.49;91.03;102505.81;10537454;28;20039;-78
2022/01/16 16:07:21;;;;;;;75.38;42.22;;;;;;;2.49;90.68;102513.56;10540010;28;20059;-78
2022/01/16 16:12:21;;;;;;;69.25;38.17;;;;;;;2.50;90.94;102523.16;10510524;28;20060;-78
2022/01/16 16:17:22;;;;;;;72.00;36.08;;;;;;;2.43;91.26;102513.84;10534922;28;20024;-78
2022/01/16 16:22:22;;;;;;;76.32;37.63;;;;;;;2.49;90.77;102500.63;10539951;28;20728;-78
2022/01/16 16:27:23;;;;;;;66.00;39.55;;;;;;;2.52;90.60;102523.31;10538789;28;20491;-78
2022/01/16 16:32:24;;;;;;;58.63;36.35;;;;;;;2.47;90.81;102507.31;10521652;28;20475;-78
2022/01/16 16:37:24;;;;;;;64.35;37.28;;;;;;;2.44;91.13;102525.06;10520388;28;20513;-79
2022/01/16 16:42:25;;;;;;;82.57;44.13;;;;;;;2.46;90.95;102536.50;10506550;28;20040;-79
2022/01/16 16:47:25;;;;;;;80.13;40.05;;;;;;;2.49;91.04;102542.00;10539152;28;20107;-78
2022/01/16 16:52:26;;;;;;;73.90;38.63;;;;;;;2.49;91.54;102542.00;10521532;28;20024;-79
2022/01/16 16:57:27;;;;;;;77.47;41.15;;;;;;;2.48;91.13;102547.91;10539632;28;20016;-78
2022/01/16 17:02:27;;;;;;;79.05;42.88;;;;;;;2.45;91.27;102545.00;10520436;28;20471;-78
2022/01/16 17:07:28;;;;;;;86.35;43.58;;;;;;;2.46;91.61;102542.59;10493735;28;20075;-79
2022/01/16 17:12:29;;;;;;;82.45;40.05;;;;;;;2.46;91.90;102552.00;10479382;28;20048;-78
2022/01/16 17:17:29;;;;;;;88.35;43.72;;;;;;;2.46;92.16;102563.28;10496215;28;20479;-79
2022/01/16 17:22:30;;;;;;;86.78;44.05;;;;;;;2.51;92.29;102584.44;10477588;28;20032;-79
2022/01/16 17:27:30;;;;;;;92.55;46.83;;;;;;;2.51;92.46;102599.94;10489505;28;20052;-78
2022/01/16 17:32:31;;;;;;;89.13;48.88;;;;;;;2.56;91.84;102598.78;10489651;28;20432;-78
2022/01/16 17:37:31;;;;;;;96.15;48.00;;;;;;;2.55;92.05;102596.94;10507044;28;20074;-78
2022/01/16 17:42:32;;;;;;;78.93;43.78;;;;;;;2.58;91.80;102570.50;10499433;28;20067;-78
2022/01/16 17:47:32;;;;;;;83.90;43.63;;;;;;;2.55;91.67;102612.44;10487845;28;20067;-79
2022/01/16 17:52:33;;;;;;;85.57;46.33;;;;;;;2.57;92.07;102618.69;10470428;28;20503;-79
2022/01/16 17:57:33;;;;;;;84.78;44.58;;;;;;;2.58;92.36;102622.22;10471645;28;20056;-79
2022/01/16 18:02:36;;;;;;;88.10;44.10;;;;;;;2.60;91.85;102628.47;10523370;27;20135;-79
2022/01/16 18:07:37;;;;;;;85.93;47.47;;;;;;;2.62;91.76;102640.78;10485463;28;20028;-79
2022/01/16 18:12:38;;;;;;;61.20;33.43;;;;;;;2.59;91.86;102650.81;10480347;28;20029;-79
2022/01/16 18:17:38;;;;;;;86.82;48.65;;;;;;;2.67;92.31;102666.22;10480460;28;20103;-80
2022/01/16 18:22:39;;;;;;;86.55;42.17;;;;;;;2.66;91.96;102674.75;10461194;28;20051;-81
2022/01/16 18:27:40;;;;;;;78.70;47.22;;;;;;;2.69;92.23;102688.94;10491746;28;20025;-81
2022/01/16 18:32:40;;;;;;;93.07;44.60;;;;;;;2.69;92.19;102700.94;10494411;28;20025;-82
2022/01/16 18:37:41;;;;;;;96.32;46.85;;;;;;;2.69;92.46;102703.50;10474804;28;20072;-82
2022/01/16 18:42:42;;;;;;;89.88;50.15;;;;;;;2.71;92.31;102709.75;10495144;28;20119;-82
2022/01/16 18:47:46;;;;;;;106.57;55.13;;;;;;;2.71;92.05;102707.19;10459634;28;20111;-81
2022/01/16 18:52:48;;;;;;;97.50;49.80;;;;;;;2.74;92.23;102692.00;10477436;28;20037;-81
2022/01/16 18:57:48;;;;;;;99.38;55.55;;;;;;;2.68;92.47;102697.44;10493522;28;20033;-82
2022/01/16 19:02:49;;;;;;;100.47;49.55;;;;;;;2.74;92.06;102692.94;10493481;28;20563;-82
2022/01/16 19:07:49;;;;;;;123.38;57.83;;;;;;;2.73;92.11;102698.84;10493421;28;20064;-82
2022/01/16 19:12:50;;;;;;;103.68;54.53;;;;;;;2.72;92.46;102701.25;10466411;28;20079;-82
2022/01/16 19:17:50;;;;;;;115.82;55.67;;;;;;;2.74;92.51;102695.53;10483929;28;20028;-81
2022/01/16 19:22:51;;;;;;;116.03;55.70;;;;;;;2.69;92.44;102701.84;10442012;28;20068;-82
2022/01/16 19:27:52;;;;;;;120.43;54.70;;;;;;;2.63;92.44;102722.78;10450909;28;20028;-82
2022/01/16 19:32:52;;;;;;;122.82;56.10;;;;;;;2.61;92.91;102732.03;10482575;28;20044;-82
2022/01/16 19:37:53;;;;;;;127.28;62.80;;;;;;;2.59;92.71;102718.03;10482336;28;20500;-82
2022/01/16 19:48:00;;;;;;;145.82;63.65;;;;;;;2.53;93.19;102719.94;10498509;28;20063;-81
2022/01/16 19:53:00;;;;;;;149.25;67.78;;;;;;;2.54;93.37;102723.44;10482964;28;20035;-82
2022/01/16 19:58:01;;;;;;;140.38;64.72;;;;;;;2.52;93.70;102736.19;10480624;28;20074;-80
2022/01/16 20:03:01;;;;;;;127.43;63.97;;;;;;;2.48;93.64;102745.28;10481326;28;20048;-80
2022/01/16 20:08:02;;;;;;;139.27;62.78;;;;;;;2.51;93.77;102744.69;10481212;28;20115;-80
2022/01/16 20:13:02;;;;;;;160.25;71.05;;;;;;;2.48;93.42;102746.94;10496865;28;20024;-81
2022/01/16 20:18:05;;;;;;;157.25;70.03;;;;;;;2.51;93.65;102748.97;10493883;28;20479;-79
2022/01/16 20:23:07;;;;;;;159.68;73.63;;;;;;;2.52;94.04;102754.28;10513465;28;20071;-80
2022/01/16 20:28:07;;;;;;;148.43;71.17;;;;;;;2.52;93.71;102780.13;10463851;28;20028;-80
2022/01/16 20:33:10;;;;;;;135.43;61.20;;;;;;;2.54;93.84;102778.63;10479429;28;20295;-81
2022/01/16 20:38:10;;;;;;;154.68;71.88;;;;;;;2.52;93.69;102787.00;10463304;28;20058;-80
2022/01/16 20:43:11;;;;;;;143.05;69.25;;;;;;;2.56;93.74;102796.91;10497891;28;20060;-79
2022/01/16 20:48:11;;;;;;;158.38;73.03;;;;;;;2.57;94.12;102804.81;10495535;28;20055;-80
2022/01/16 20:53:12;;;;;;;156.77;73.53;;;;;;;2.57;93.46;102815.16;10478932;28;20392;-79
2022/01/16 20:58:13;;;;;;;178.50;78.53;;;;;;;2.60;94.08;102812.03;10494482;28;20040;-79
2022/01/16 21:03:14;;;;;;;163.40;74.75;;;;;;;2.60;94.08;102812.94;10497572;28;20120;-79
2022/01/16 21:08:20;;;;;;;158.60;70.53;;;;;;;2.66;94.33;102816.94;10496235;28;20089;-80
2022/01/16 21:13:21;;;;;;;153.18;69.68;;;;;;;2.63;94.11;102815.84;10497125;28;20033;-80
2022/01/16 21:18:23;;;;;;;152.48;75.32;;;;;;;2.69;93.69;102819.88;10494650;28;20119;-80
2022/01/16 21:23:24;;;;;;;183.80;75.13;;;;;;;2.69;94.28;102818.22;10494740;28;20031;-80
2022/01/16 21:28:25;;;;;;;149.63;68.88;;;;;;;2.68;94.12;102828.38;10493825;28;20043;-79
2022/01/16 21:33:26;;;;;;;159.75;73.35;;;;;;;2.71;94.04;102816.72;10495279;28;20047;-79
2022/01/16 21:38:26;;;;;;;149.38;73.70;;;;;;;2.70;93.87;102821.69;10477826;28;20093;-80
2022/01/16 21:43:27;;;;;;;141.77;63.10;;;;;;;2.71;94.10;102820.94;10494937;28;20050;-80
2022/01/16 21:48:29;;;;;;;155.30;72.18;;;;;;;2.71;94.09;102841.63;10488466;28;20088;-78
2022/01/16 21:53:29;;;;;;;167.32;72.30;;;;;;;2.70;93.81;102825.22;10486884;28;20032;-79
2022/01/16 21:58:30;;;;;;;166.93;77.10;;;;;;;2.74;94.25;102836.81;10490666;28;20455;-79
2022/01/16 22:03:30;;;;;;;166.82;77.18;;;;;;;2.73;94.03;102838.50;10473379;28;20032;-79
2022/01/16 22:08:31;;;;;;;165.18;75.45;;;;;;;2.77;94.27;102839.75;10474235;28;20031;-80
2022/01/16 22:13:31;;;;;;;178.20;81.45;;;;;;;2.75;93.68;102846.41;10494331;28;20107;-81
2022/01/16 22:18:32;;;;;;;168.55;77.53;;;;;;;2.75;93.71;102843.81;10490043;28;20120;-77
2022/01/16 22:23:37;;;;;;;165.50;74.45;;;;;;;2.78;93.59;102851.91;10474122;28;20052;-78
2022/01/16 22:28:37;;;;;;;169.35;73.43;;;;;;;2.82;93.74;102858.38;10491609;28;20527;-78
2022/01/16 22:33:38;;;;;;;170.68;75.20;;;;;;;2.81;93.93;102869.47;10473938;28;20041;-81
2022/01/16 22:38:38;;;;;;;161.98;76.38;;;;;;;2.77;94.05;102875.94;10473692;28;20048;-78
2022/01/16 22:43:39;;;;;;;176.05;77.50;;;;;;;2.79;93.81;102880.56;10493129;28;20111;-80
2022/01/16 22:48:40;;;;;;;154.10;74.97;;;;;;;2.79;93.61;102889.97;10500680;28;20032;-80
2022/01/16 22:53:41;;;;;;;162.07;78.05;;;;;;;2.76;94.29;102882.78;10499759;28;20025;-81
2022/01/16 22:58:41;;;;;;;163.80;72.53;;;;;;;2.79;94.64;102889.97;10501247;28;20020;-81
2022/01/16 23:03:42;;;;;;;175.10;79.75;;;;;;;2.76;94.21;102882.78;10483773;28;20502;-80
2022/01/16 23:08:42;;;;;;;170.70;79.20;;;;;;;2.77;93.99;102891.47;10499830;28;20063;-80
2022/01/16 23:13:43;;;;;;;176.63;82.05;;;;;;;2.75;94.57;102899.06;10476250;28;20083;-79
2022/01/16 23:18:43;;;;;;;163.93;85.38;;;;;;;2.74;94.66;102902.41;10499181;28;20067;-81
2022/01/16 23:23:44;;;;;;;177.15;81.78;;;;;;;2.77;94.47;102910.50;10499805;28;20131;-80
2022/01/16 23:28:44;;;;;;;165.60;80.72;;;;;;;2.82;94.86;102905.81;10499150;28;20107;-80
2022/01/16 23:33:45;;;;;;;166.40;77.68;;;;;;;2.84;94.61;102908.59;10499408;28;20056;-80
2022/01/16 23:38:46;;;;;;;182.52;80.45;;;;;;;2.81;94.52;102916.91;10501027;28;20041;-80